createdAt,value
2022-09-23T00:02:11.448Z,100575.19
2022-09-23T00:04:39.636Z,100572.38
2022-09-23T00:07:09.404Z,100561.88
2022-09-23T00:09:37.529Z,100560.53
2022-09-23T00:12:09.071Z,100565.16
2022-09-23T00:14:39.251Z,100565.78
2022-09-23T00:17:07.579Z,100568.59
2022-09-23T00:19:35.895Z,100566.69
2022-09-23T00:22:04.680Z,100577.25
2022-09-23T00:24:34.461Z,100567.13
2022-09-23T00:27:02.880Z,100575.84
2022-09-23T00:29:32.078Z,100579.41
2022-09-23T00:32:00.311Z,100577.84
2022-09-23T00:34:28.412Z,100581.22
2022-09-23T00:36:57.186Z,100580.78
2022-09-23T00:39:26.189Z,100578.94
2022-09-23T00:41:56.158Z,100575.97
2022-09-23T00:44:44.266Z,100574.38
2022-09-23T00:47:19.684Z,100572.59
2022-09-23T00:49:52.291Z,100571.69
2022-09-23T00:52:24.530Z,100577.97
2022-09-23T00:54:56.402Z,100576.47
2022-09-23T00:57:27.451Z,100574.66
2022-09-23T00:59:56.362Z,100572.59
2022-09-23T01:02:24.900Z,100572.16
2022-09-23T01:04:53.092Z,100574.53
2022-09-23T01:07:22.023Z,100574.19
2022-09-23T01:09:50.983Z,100575.03
2022-09-23T01:12:35.888Z,100576.63
2022-09-23T01:15:12.321Z,100577.47
2022-09-23T01:17:47.627Z,100585.75
2022-09-23T01:20:50.592Z,100577.41
2022-09-23T01:23:53.405Z,100582.19
2022-09-23T01:26:45.326Z,100575.41
2022-09-23T01:29:42.330Z,100581.84
2022-09-23T01:32:21.473Z,100581.38
2022-09-23T01:34:56.980Z,100589.63
2022-09-23T01:37:35.281Z,100586.47
2022-09-23T01:40:08.436Z,100584.06
2022-09-23T01:42:40.731Z,100577.47
2022-09-23T01:45:16.581Z,100578.56
2022-09-23T01:47:52.496Z,100569.88
2022-09-23T01:50:41.064Z,100571.03
2022-09-23T01:53:19.908Z,100571.13
2022-09-23T01:55:52.621Z,100578.13
2022-09-23T01:58:25.854Z,100577.41
2022-09-23T02:00:59.947Z,100576.44
2022-09-23T02:03:33.879Z,100587.47
2022-09-23T02:06:08.590Z,100585.06
2022-09-23T02:08:42.957Z,100587.69
2022-09-23T02:11:15.216Z,100580.34
2022-09-23T02:13:49.996Z,100578.44
2022-09-23T02:16:26.419Z,100580.16
2022-09-23T02:19:01.297Z,100582.03
2022-09-23T02:21:40.019Z,100583.03
2022-09-23T02:24:13.708Z,100580.44
2022-09-23T02:26:49.144Z,100576.41
2022-09-23T02:29:21.845Z,100588.31
2022-09-23T02:31:59.695Z,100580.16
2022-09-23T02:34:42.286Z,100573.00
2022-09-23T02:37:21.091Z,100583.13
2022-09-23T02:39:59.510Z,100572.94
2022-09-23T02:42:39.470Z,100573.41
2022-09-23T02:45:08.307Z,100581.06
2022-09-23T02:47:39.714Z,100574.50
2022-09-23T02:50:10.703Z,100575.47
2022-09-23T02:52:39.223Z,100576.75
2022-09-23T02:55:11.070Z,100586.28
2022-09-23T02:57:39.727Z,100577.66
2022-09-23T03:00:10.415Z,100582.72
2022-09-23T03:03:05.384Z,100583.53
2022-09-23T03:05:38.166Z,100576.28
2022-09-23T03:08:21.463Z,100586.47
2022-09-23T03:10:57.382Z,100590.75
2022-09-23T03:13:35.292Z,100598.63
2022-09-23T03:16:12.998Z,100592.94
2022-09-23T03:18:44.917Z,100593.66
2022-09-23T03:21:18.779Z,100597.22
2022-09-23T03:23:49.536Z,100592.06
2022-09-23T03:26:23.060Z,100595.84
2022-09-23T03:28:52.073Z,100596.63
2022-09-23T03:31:20.691Z,100590.69
2022-09-23T03:33:53.651Z,100586.72
2022-09-23T03:36:45.949Z,100591.47
2022-09-23T03:39:22.478Z,100590.88
2022-09-23T03:41:54.217Z,100590.75
2022-09-23T03:44:23.539Z,100591.97
2022-09-23T03:46:51.865Z,100599.22
2022-09-23T03:49:27.429Z,100593.84
2022-09-23T03:51:57.342Z,100595.75
2022-09-23T03:54:25.948Z,100594.44
2022-09-23T03:56:54.969Z,100598.22
2022-09-23T03:59:23.179Z,100599.63
2022-09-23T04:01:51.592Z,100602.09
2022-09-23T04:04:21.209Z,100595.63
2022-09-23T04:06:49.835Z,100603.59
2022-09-23T04:09:19.475Z,100605.34
2022-09-23T04:11:49.103Z,100602.78
2022-09-23T04:14:18.199Z,100598.41
2022-09-23T04:16:47.016Z,100602.38
2022-09-23T04:19:15.969Z,100601.97
2022-09-23T04:21:45.664Z,100601.47
2022-09-23T04:24:14.200Z,100608.25
2022-09-23T04:26:44.078Z,100617.16
2022-09-23T04:29:12.245Z,100617.56
2022-09-23T04:31:40.789Z,100618.06
2022-09-23T04:34:09.090Z,100614.84
2022-09-23T04:36:37.178Z,100624.09
2022-09-23T04:39:06.342Z,100619.91
2022-09-23T04:41:34.639Z,100616.09
2022-09-23T04:44:04.379Z,100625.03
2022-09-23T04:46:33.025Z,100620.59
2022-09-23T04:49:01.508Z,100623.34
2022-09-23T04:51:29.678Z,100626.88
2022-09-23T04:53:57.937Z,100621.50
2022-09-23T04:56:28.071Z,100637.75
2022-09-23T04:58:57.372Z,100631.88
2022-09-23T05:01:28.903Z,100634.72
2022-09-23T05:04:01.966Z,100635.75
2022-09-23T05:06:31.590Z,100626.16
2022-09-23T05:09:00.761Z,100633.19
2022-09-23T05:11:31.708Z,100641.56
2022-09-23T05:14:00.570Z,100639.47
2022-09-23T05:16:31.063Z,100636.56
2022-09-23T05:18:59.696Z,100629.34
2022-09-23T05:21:29.075Z,100628.66
2022-09-23T05:24:00.649Z,100628.56
2022-09-23T05:26:30.510Z,100626.97
2022-09-23T05:28:58.627Z,100631.63
2022-09-23T05:31:28.847Z,100633.53
2022-09-23T05:34:00.154Z,100633.88
2022-09-23T05:36:34.221Z,100632.31
2022-09-23T05:39:04.736Z,100642.66
2022-09-23T05:41:34.049Z,100644.69
2022-09-23T05:44:02.821Z,100640.38
2022-09-23T05:46:32.269Z,100650.53
2022-09-23T05:49:03.621Z,100660.41
2022-09-23T05:51:33.004Z,100652.94
2022-09-23T05:54:04.389Z,100659.91
2022-09-23T05:56:33.864Z,100667.06
2022-09-23T05:59:06.328Z,100673.41
2022-09-23T06:01:38.159Z,100682.16
2022-09-23T06:04:13.280Z,100684.50
2022-09-23T06:06:43.127Z,100690.84
2022-09-23T06:09:14.939Z,100691.00
2022-09-23T06:11:44.647Z,100699.13
2022-09-23T06:14:14.974Z,100701.16
2022-09-23T06:16:43.384Z,100705.06
2022-09-23T06:19:12.976Z,100702.28
2022-09-23T06:21:41.831Z,100700.72
2022-09-23T06:24:16.178Z,100708.78
2022-09-23T06:26:47.079Z,100707.97
2022-09-23T06:29:15.469Z,100712.53
2022-09-23T06:31:43.807Z,100705.97
2022-09-23T06:34:15.001Z,100707.19
2022-09-23T06:36:45.354Z,100713.69
2022-09-23T06:39:14.857Z,100721.66
2022-09-23T06:41:43.409Z,100720.13
2022-09-23T06:44:11.545Z,100718.19
2022-09-23T06:46:39.789Z,100718.06
2022-09-23T06:49:08.137Z,100718.72
2022-09-23T06:51:37.685Z,100716.44
2022-09-23T06:54:06.190Z,100713.28
2022-09-23T06:56:38.720Z,100707.50
2022-09-23T06:59:10.947Z,100703.34
2022-09-23T07:01:39.353Z,100708.56
2022-09-23T07:04:08.198Z,100710.81
2022-09-23T07:06:39.077Z,100704.84
2022-09-23T07:09:08.136Z,100708.31
2022-09-23T07:11:36.293Z,100702.09
2022-09-23T07:14:04.829Z,100707.44
2022-09-23T07:16:33.681Z,100706.97
2022-09-23T07:19:02.606Z,100698.97
2022-09-23T07:21:30.868Z,100712.81
2022-09-23T07:24:00.528Z,100704.41
2022-09-23T07:26:29.665Z,100704.41
2022-09-23T07:29:05.027Z,100704.53
2022-09-23T07:31:39.288Z,100696.31
2022-09-23T07:34:10.046Z,100698.91
2022-09-23T07:36:40.978Z,100705.94
2022-09-23T07:39:12.342Z,100689.56
2022-09-23T07:41:41.790Z,100699.94
2022-09-23T07:44:11.206Z,100702.03
2022-09-23T07:46:40.214Z,100699.81
2022-09-23T07:49:08.542Z,100693.72
2022-09-23T07:51:39.451Z,100686.16
2022-09-23T07:54:09.124Z,100686.47
2022-09-23T07:56:39.873Z,100684.53
2022-09-23T07:59:09.704Z,100689.09
2022-09-23T08:01:39.522Z,100690.88
2022-09-23T08:04:10.062Z,100701.25
2022-09-23T08:06:42.121Z,100694.16
2022-09-23T08:09:10.698Z,100695.03
2022-09-23T08:11:42.235Z,100695.94
2022-09-23T08:14:14.466Z,100703.72
2022-09-23T08:16:44.158Z,100697.53
2022-09-23T08:19:13.188Z,100695.75
2022-09-23T08:21:42.064Z,100693.72
2022-09-23T08:24:13.961Z,100690.09
2022-09-23T08:26:43.553Z,100684.13
2022-09-23T08:29:14.062Z,100685.47
2022-09-23T08:31:42.614Z,100684.34
2022-09-23T08:34:11.295Z,100679.28
2022-09-23T08:36:39.507Z,100677.56
2022-09-23T08:39:08.377Z,100677.25
2022-09-23T08:41:41.154Z,100664.41
2022-09-23T08:44:15.239Z,100668.09
2022-09-23T08:46:48.034Z,100673.16
2022-09-23T08:49:24.999Z,100666.50
2022-09-23T08:51:56.078Z,100675.63
2022-09-23T08:54:28.341Z,100675.09
2022-09-23T08:57:01.070Z,100675.31
2022-09-23T08:59:39.072Z,100670.84
2022-09-23T09:02:14.745Z,100672.75
2022-09-23T09:04:45.490Z,100669.44
2022-09-23T09:07:36.641Z,100661.25
2022-09-23T09:10:11.572Z,100666.22
2022-09-23T09:12:44.774Z,100665.22
2022-09-23T09:15:16.627Z,100662.22
2022-09-23T09:17:53.002Z,100663.75
2022-09-23T09:20:25.559Z,100660.81
2022-09-23T09:22:57.952Z,100659.13
2022-09-23T09:25:39.239Z,100673.38
2022-09-23T09:28:16.799Z,100671.63
2022-09-23T09:30:51.490Z,100665.81
2022-09-23T09:33:25.466Z,100679.00
2022-09-23T09:36:09.066Z,100667.44
2022-09-23T09:38:37.686Z,100672.41
2022-09-23T09:41:15.368Z,100670.59
2022-09-23T09:43:48.521Z,100655.16
2022-09-23T09:46:34.323Z,100660.16
2022-09-23T09:49:09.894Z,100660.25
2022-09-23T09:51:39.770Z,100661.72
2022-09-23T09:54:23.147Z,100661.00
2022-09-23T09:56:52.630Z,100663.91
2022-09-23T09:59:27.552Z,100646.44
2022-09-23T10:02:21.510Z,100650.97
2022-09-23T10:04:58.031Z,100652.13
2022-09-23T10:07:28.529Z,100660.34
2022-09-23T10:10:01.852Z,100663.63
2022-09-23T10:12:46.234Z,100666.00
2022-09-23T10:15:31.355Z,100670.66
2022-09-23T10:18:02.602Z,100665.84
2022-09-23T10:20:36.529Z,100667.44
2022-09-23T10:23:09.997Z,100666.88
2022-09-23T10:25:38.559Z,100660.41
2022-09-23T10:28:32.353Z,100659.75
2022-09-23T10:31:09.028Z,100659.22
2022-09-23T10:33:48.234Z,100651.75
2022-09-23T10:36:18.471Z,100664.88
2022-09-23T10:38:50.601Z,100659.16
2022-09-23T10:42:00.081Z,100657.28
2022-09-23T10:44:52.714Z,100651.09
2022-09-23T10:47:34.621Z,100637.41
2022-09-23T10:50:15.611Z,100641.88
2022-09-23T10:52:56.127Z,100643.97
2022-09-23T10:55:42.269Z,100644.06
2022-09-23T10:58:39.128Z,100642.31
2022-09-23T11:01:20.344Z,100639.56
2022-09-23T11:04:09.363Z,100635.66
2022-09-23T11:06:48.785Z,100634.06
2022-09-23T11:09:31.487Z,100635.88
2022-09-23T11:12:15.239Z,100634.72
2022-09-23T11:14:53.756Z,100634.13
2022-09-23T11:17:44.853Z,100638.88
2022-09-23T11:20:27.523Z,100632.75
2022-09-23T11:23:35.989Z,100628.16
2022-09-23T11:26:13.765Z,100620.81
2022-09-23T11:29:10.325Z,100622.50
2022-09-23T11:31:54.138Z,100615.56
2022-09-23T11:35:03.094Z,100608.16
2022-09-23T11:37:36.827Z,100603.13
2022-09-23T11:40:15.630Z,100596.88
2022-09-23T11:42:53.626Z,100601.28
2022-09-23T11:45:25.955Z,100594.88
2022-09-23T11:47:59.305Z,100597.91
2022-09-23T11:50:33.976Z,100586.94
2022-09-23T11:53:07.182Z,100589.09
2022-09-23T11:55:55.990Z,100600.28
2022-09-23T11:58:30.822Z,100596.56
2022-09-23T12:01:06.831Z,100592.53
2022-09-23T12:03:45.644Z,100594.09
2022-09-23T12:06:19.028Z,100597.34
2022-09-23T12:08:47.334Z,100586.13
2022-09-23T12:11:28.207Z,100589.72
2022-09-23T12:14:08.971Z,100588.25
2022-09-23T12:16:55.265Z,100596.13
2022-09-23T12:19:51.927Z,100608.97
2022-09-23T12:22:36.723Z,100627.41
2022-09-23T12:25:23.713Z,100644.44
2022-09-23T12:27:57.360Z,100647.44
2022-09-23T12:30:29.128Z,100662.31
2022-09-23T12:33:10.303Z,100685.25
2022-09-23T12:35:44.904Z,100687.19
2022-09-23T12:38:20.867Z,100691.66
2022-09-23T12:40:49.683Z,100675.31
2022-09-23T12:43:22.304Z,100669.72
2022-09-23T12:45:50.998Z,100667.94
2022-09-23T12:48:47.680Z,100672.16
2022-09-23T12:51:21.139Z,100664.34
2022-09-23T12:53:58.689Z,100660.00
2022-09-23T12:57:03.395Z,100658.00
2022-09-23T12:59:53.883Z,100645.72
2022-09-23T13:02:30.760Z,100646.25
2022-09-23T13:05:23.078Z,100633.97
2022-09-23T13:07:52.019Z,100635.63
2022-09-23T13:10:28.978Z,100634.09
2022-09-23T13:12:58.581Z,100640.78
2022-09-23T13:15:33.172Z,100634.47
2022-09-23T13:18:26.372Z,100636.66
2022-09-23T13:20:56.953Z,100628.91
2022-09-23T13:23:27.117Z,100633.38
2022-09-23T13:25:58.191Z,100634.16
2022-09-23T13:28:34.062Z,100635.25
2022-09-23T13:31:07.159Z,100630.81
2022-09-23T13:33:45.466Z,100627.94
2022-09-23T13:36:16.200Z,100636.97
2022-09-23T13:38:46.189Z,100642.47
2022-09-23T13:41:17.432Z,100634.88
2022-09-23T13:43:48.981Z,100647.22
2022-09-23T13:46:22.146Z,100645.66
2022-09-23T13:48:54.739Z,100646.94
2022-09-23T13:51:27.120Z,100642.69
2022-09-23T13:53:56.589Z,100639.81
2022-09-23T13:56:26.566Z,100635.22
2022-09-23T13:58:56.005Z,100634.06
2022-09-23T14:01:33.193Z,100636.72
2022-09-23T14:04:02.228Z,100632.31
2022-09-23T14:06:32.121Z,100632.94
2022-09-23T14:09:03.517Z,100624.78
2022-09-23T14:11:35.215Z,100623.63
2022-09-23T14:14:07.242Z,100618.03
2022-09-23T14:16:41.004Z,100615.63
2022-09-23T14:19:17.887Z,100608.03
2022-09-23T14:21:50.278Z,100610.53
2022-09-23T14:24:20.549Z,100607.56
2022-09-23T14:26:54.282Z,100605.03
2022-09-23T14:29:26.737Z,100605.31
2022-09-23T14:31:58.232Z,100600.09
2022-09-23T14:34:44.756Z,100602.78
2022-09-23T14:37:44.345Z,100598.88
2022-09-23T14:40:18.798Z,100594.88
2022-09-23T14:42:51.524Z,100591.97
2022-09-23T14:45:23.134Z,100598.63
2022-09-23T14:47:57.895Z,100598.56
2022-09-23T14:50:39.989Z,100599.38
2022-09-23T14:53:32.645Z,100602.72
2022-09-23T14:56:14.668Z,100599.31
2022-09-23T14:58:53.030Z,100603.78
2022-09-23T15:01:42.324Z,100598.41
2022-09-23T15:04:31.666Z,100605.38
2022-09-23T15:07:09.558Z,100601.41
2022-09-23T15:09:40.920Z,100596.88
2022-09-23T15:12:14.007Z,100598.03
2022-09-23T15:14:46.591Z,100592.84
2022-09-23T15:17:33.732Z,100592.19
2022-09-23T15:20:05.606Z,100592.06
2022-09-23T15:22:43.654Z,100594.75
2022-09-23T15:25:21.527Z,100593.78
2022-09-23T15:28:02.482Z,100586.69
2022-09-23T15:30:32.136Z,100588.28
2022-09-23T15:33:01.130Z,100587.47
2022-09-23T15:35:32.137Z,100591.59
2022-09-23T15:38:01.806Z,100587.94
2022-09-23T15:40:31.709Z,100589.06
2022-09-23T15:43:01.631Z,100602.66
2022-09-23T15:45:33.478Z,100603.59
2022-09-23T15:48:08.097Z,100604.38
2022-09-23T15:50:38.351Z,100596.94
2022-09-23T15:53:07.189Z,100597.88
2022-09-23T15:55:35.543Z,100600.56
2022-09-23T15:58:03.656Z,100608.16
2022-09-23T16:00:31.972Z,100612.56
2022-09-23T16:03:01.185Z,100606.56
2022-09-23T16:05:33.217Z,100605.59
2022-09-23T16:08:08.455Z,100609.41
2022-09-23T16:10:38.264Z,100608.63
2022-09-23T16:13:09.074Z,100614.63
2022-09-23T16:15:39.160Z,100613.81
2022-09-23T16:18:08.102Z,100620.53
2022-09-23T16:20:37.471Z,100613.78
2022-09-23T16:23:15.073Z,100623.50
2022-09-23T16:25:44.546Z,100630.44
2022-09-23T16:28:12.626Z,100635.28
2022-09-23T16:30:41.030Z,100632.44
2022-09-23T16:33:09.123Z,100633.34
2022-09-23T16:35:39.081Z,100640.47
2022-09-23T16:38:09.588Z,100656.38
2022-09-23T16:40:37.882Z,100654.81
2022-09-23T16:43:06.072Z,100657.19
2022-09-23T16:45:34.772Z,100655.22
2022-09-23T16:48:03.260Z,100654.56
2022-09-23T16:50:33.625Z,100659.81
2022-09-23T16:53:01.786Z,100664.56
2022-09-23T16:55:31.408Z,100668.19
2022-09-23T16:57:59.672Z,100665.75
2022-09-23T17:00:45.334Z,100667.88
2022-09-23T17:03:31.812Z,100669.19
2022-09-23T17:06:03.479Z,100670.50
2022-09-23T17:08:38.636Z,100676.03
2022-09-23T17:11:08.823Z,100671.03
2022-09-23T17:13:37.072Z,100684.38
2022-09-23T17:16:05.498Z,100690.03
2022-09-23T17:18:33.736Z,100689.16
2022-09-23T17:21:05.275Z,100691.53
2022-09-23T17:23:35.201Z,100694.44
2022-09-23T17:26:05.532Z,100693.94
2022-09-23T17:28:35.173Z,100694.06
2022-09-23T17:31:05.519Z,100698.44
2022-09-23T17:33:37.303Z,100697.16
2022-09-23T17:36:08.999Z,100699.25
2022-09-23T17:38:41.019Z,100699.03
2022-09-23T17:41:10.309Z,100704.41
2022-09-23T17:43:41.062Z,100703.78
2022-09-23T17:46:11.384Z,100705.78
2022-09-23T17:48:41.499Z,100705.78
2022-09-23T17:51:12.364Z,100710.16
2022-09-23T17:53:42.293Z,100709.72
2022-09-23T17:56:17.436Z,100710.41
2022-09-23T17:58:48.780Z,100713.56
2022-09-23T18:01:18.864Z,100720.41
2022-09-23T18:03:48.077Z,100713.03
2022-09-23T18:06:17.843Z,100711.81
2022-09-23T18:08:47.953Z,100703.63
2022-09-23T18:11:18.415Z,100710.94
2022-09-23T18:13:53.284Z,100711.94
2022-09-23T18:16:23.788Z,100706.75
2022-09-23T18:18:53.166Z,100702.78
2022-09-23T18:21:22.219Z,100701.00
2022-09-23T18:23:50.790Z,100705.78
2022-09-23T18:26:19.993Z,100702.09
2022-09-23T18:28:48.627Z,100691.13
2022-09-23T18:31:18.754Z,100696.66
2022-09-23T18:33:50.828Z,100694.97
2022-09-23T18:36:19.674Z,100691.66
2022-09-23T18:38:48.178Z,100695.03
2022-09-23T18:41:16.804Z,100688.69
2022-09-23T18:43:48.467Z,100694.50
2022-09-23T18:46:20.511Z,100687.53
2022-09-23T18:49:07.047Z,100691.28
2022-09-23T18:51:38.318Z,100689.72
2022-09-23T18:54:08.445Z,100688.91
2022-09-23T18:56:42.199Z,100699.31
2022-09-23T18:59:14.532Z,100688.88
2022-09-23T19:01:45.958Z,100690.13
2022-09-23T19:04:16.436Z,100696.41
2022-09-23T19:06:44.738Z,100689.28
2022-09-23T19:09:13.479Z,100697.75
2022-09-23T19:11:41.716Z,100696.47
2022-09-23T19:14:12.622Z,100693.50
2022-09-23T19:16:44.070Z,100697.34
2022-09-23T19:19:12.157Z,100699.22
2022-09-23T19:21:40.602Z,100700.53
2022-09-23T19:24:09.562Z,100699.81
2022-09-23T19:26:40.366Z,100704.56
2022-09-23T19:29:14.473Z,100702.50
2022-09-23T19:31:44.087Z,100704.94
2022-09-23T19:34:15.236Z,100707.06
2022-09-23T19:36:44.934Z,100703.34
2022-09-23T19:39:17.771Z,100701.75
2022-09-23T19:41:46.737Z,100697.00
2022-09-23T19:44:15.444Z,100699.28
2022-09-23T19:46:46.381Z,100702.63
2022-09-23T19:49:15.277Z,100697.25
2022-09-23T19:51:44.302Z,100698.72
2022-09-23T19:54:13.097Z,100696.66
2022-09-23T19:56:41.717Z,100698.63
2022-09-23T19:59:09.848Z,100695.19
2022-09-23T20:01:38.742Z,100691.91
2022-09-23T20:04:08.814Z,100690.06
2022-09-23T20:06:39.490Z,100695.81
2022-09-23T20:09:07.854Z,100695.19
2022-09-23T20:11:36.029Z,100702.16
2022-09-23T20:14:06.401Z,100700.47
2022-09-23T20:16:37.462Z,100701.06
2022-09-23T20:19:07.589Z,100700.31
2022-09-23T20:21:35.964Z,100696.34
2022-09-23T20:24:06.590Z,100694.47
2022-09-23T20:26:52.502Z,100696.72
2022-09-23T20:29:20.756Z,100695.13
2022-09-23T20:31:49.329Z,100692.31
2022-09-23T20:34:19.729Z,100692.13
2022-09-23T20:36:47.929Z,100694.34
2022-09-23T20:39:16.128Z,100700.31
2022-09-23T20:41:44.259Z,100691.34
2022-09-23T20:44:13.993Z,100690.31
2022-09-23T20:46:47.758Z,100689.94
2022-09-23T20:49:17.054Z,100696.41
2022-09-23T20:51:48.213Z,100693.09
2022-09-23T20:54:16.541Z,100694.69
2022-09-23T20:56:44.678Z,100687.88
2022-09-23T20:59:15.020Z,100688.34
2022-09-23T21:01:43.434Z,100688.34
2022-09-23T21:04:11.748Z,100684.69
2022-09-23T21:06:40.121Z,100681.66
2022-09-23T21:09:09.796Z,100677.00
2022-09-23T21:11:38.346Z,100678.25
2022-09-23T21:14:06.662Z,100672.19
2022-09-23T21:16:35.313Z,100679.28
2022-09-23T21:19:04.181Z,100672.16
2022-09-23T21:21:32.305Z,100670.56
2022-09-23T21:24:24.563Z,100672.94
2022-09-23T21:26:54.039Z,100672.16
2022-09-23T21:29:22.392Z,100660.81
2022-09-23T21:31:50.597Z,100666.28
2022-09-23T21:34:19.521Z,100673.34
2022-09-23T21:36:48.990Z,100672.09
2022-09-23T21:39:17.222Z,100673.97
2022-09-23T21:41:45.495Z,100679.22
2022-09-23T21:44:15.217Z,100683.69
2022-09-23T21:46:43.487Z,100676.41
2022-09-23T21:49:11.713Z,100680.22
2022-09-23T21:51:41.757Z,100677.22
2022-09-23T21:54:29.388Z,100674.28
2022-09-23T21:56:57.993Z,100680.31
2022-09-23T21:59:27.516Z,100678.91
2022-09-23T22:01:55.814Z,100678.47
2022-09-23T22:04:24.021Z,100672.31
2022-09-23T22:06:54.104Z,100676.47
2022-09-23T22:09:22.661Z,100685.59
2022-09-23T22:12:11.252Z,100688.91
2022-09-23T22:14:43.001Z,100688.59
2022-09-23T22:17:14.575Z,100683.38
2022-09-23T22:19:47.271Z,100685.75
2022-09-23T22:22:17.984Z,100686.41
2022-09-23T22:24:47.660Z,100690.81
2022-09-23T22:27:18.082Z,100686.53
2022-09-23T22:30:05.122Z,100687.66
2022-09-23T22:32:42.970Z,100686.22
2022-09-23T22:35:12.998Z,100689.34
2022-09-23T22:37:41.139Z,100681.41
2022-09-23T22:40:14.392Z,100681.53
2022-09-23T22:42:43.376Z,100681.38
2022-09-23T22:45:13.928Z,100683.84
2022-09-23T22:47:45.416Z,100685.75
2022-09-23T22:50:16.272Z,100681.16
2022-09-23T22:52:44.474Z,100684.78
2022-09-23T22:55:13.325Z,100685.75
2022-09-23T22:57:41.518Z,100685.59
2022-09-23T23:00:13.435Z,100694.34
2022-09-23T23:02:42.571Z,100688.81
2022-09-23T23:05:11.293Z,100683.22
2022-09-23T23:07:39.678Z,100688.25
2022-09-23T23:10:10.581Z,100683.97
2022-09-23T23:12:39.679Z,100687.56
2022-09-23T23:15:10.689Z,100688.47
2022-09-23T23:17:41.367Z,100679.91
2022-09-23T23:20:10.319Z,100679.59
2022-09-23T23:22:38.451Z,100674.97
2022-09-23T23:25:07.390Z,100679.16
2022-09-23T23:27:36.069Z,100680.06
2022-09-23T23:30:05.795Z,100680.97
2022-09-23T23:32:33.904Z,100685.53
2022-09-23T23:35:03.428Z,100677.31
2022-09-23T23:37:31.597Z,100677.00
2022-09-23T23:40:00.732Z,100678.22
2022-09-23T23:42:28.847Z,100677.13
2022-09-23T23:44:56.955Z,100677.31
2022-09-23T23:47:26.486Z,100678.00
2022-09-23T23:49:54.812Z,100676.59
2022-09-23T23:52:24.305Z,100674.28
2022-09-23T23:54:52.868Z,100683.75
2022-09-23T23:57:21.247Z,100677.56
2022-09-23T23:59:49.782Z,100676.09
